createdAt,value
2019-03-28T00:02:24.535Z,48.34
2019-03-28T00:04:55.635Z,48.62
2019-03-28T00:07:26.450Z,48.40
2019-03-28T00:09:57.354Z,48.55
2019-03-28T00:12:28.334Z,48.55
2019-03-28T00:14:59.038Z,48.64
2019-03-28T00:17:30.003Z,48.96
2019-03-28T00:20:00.861Z,49.14
2019-03-28T00:23:00.069Z,48.85
2019-03-28T00:25:31.933Z,48.95
2019-03-28T00:28:02.697Z,48.86
2019-03-28T00:30:33.691Z,48.95
2019-03-28T00:33:04.738Z,49.21
2019-03-28T00:35:35.528Z,49.32
2019-03-28T00:38:06.412Z,48.98
2019-03-28T00:40:37.122Z,48.96
2019-03-28T00:43:08.230Z,48.88
2019-03-28T00:45:39.028Z,48.82
2019-03-28T00:48:09.785Z,48.67
2019-03-28T00:50:40.874Z,48.73
2019-03-28T00:53:11.809Z,48.69
2019-03-28T00:55:42.788Z,48.50
2019-03-28T00:58:13.893Z,48.32
2019-03-28T01:00:45.088Z,48.01
2019-03-28T01:03:16.176Z,47.96
2019-03-28T01:05:47.179Z,47.81
2019-03-28T01:08:18.225Z,47.38
2019-03-28T01:10:49.238Z,47.41
2019-03-28T01:13:20.278Z,47.53
2019-03-28T01:15:51.684Z,47.38
2019-03-28T01:18:22.759Z,47.38
2019-03-28T01:20:53.780Z,47.50
2019-03-28T01:23:24.991Z,47.09
2019-03-28T01:25:56.014Z,47.05
2019-03-28T01:28:26.962Z,47.10
2019-03-28T01:30:58.101Z,47.14
2019-03-28T01:33:29.117Z,47.31
2019-03-28T01:36:00.866Z,47.17
2019-03-28T01:38:31.861Z,47.35
2019-03-28T01:41:02.959Z,47.49
2019-03-28T01:43:33.971Z,47.75
2019-03-28T01:46:05.388Z,48.14
2019-03-28T01:48:36.504Z,48.80
2019-03-28T01:51:07.672Z,48.81
2019-03-28T01:53:38.658Z,49.24
2019-03-28T01:56:09.921Z,49.30
2019-03-28T01:59:01.342Z,49.51
2019-03-28T02:01:32.509Z,49.81
2019-03-28T02:04:03.926Z,50.13
2019-03-28T02:06:35.152Z,50.18
2019-03-28T02:09:07.766Z,50.26
2019-03-28T02:11:38.810Z,50.40
2019-03-28T02:14:10.134Z,50.52
2019-03-28T02:16:41.212Z,50.44
2019-03-28T02:19:12.265Z,50.35
2019-03-28T02:21:43.450Z,50.13
2019-03-28T02:24:14.398Z,49.84
2019-03-28T02:26:45.512Z,49.75
2019-03-28T02:29:16.634Z,49.50
2019-03-28T02:31:47.558Z,49.34
2019-03-28T02:34:18.709Z,49.16
2019-03-28T02:36:49.827Z,49.14
2019-03-28T02:39:20.797Z,49.28
2019-03-28T02:41:51.800Z,48.93
2019-03-28T02:44:22.876Z,48.95
2019-03-28T02:46:53.882Z,48.87
2019-03-28T02:50:17.466Z,48.66
2019-03-28T02:52:48.776Z,48.50
2019-03-28T02:55:20.221Z,48.19
2019-03-28T02:57:51.460Z,48.38
2019-03-28T03:00:23.229Z,48.58
2019-03-28T03:02:54.428Z,48.74
2019-03-28T03:05:25.670Z,48.96
2019-03-28T03:07:56.834Z,48.73
2019-03-28T03:10:28.301Z,48.91
2019-03-28T03:12:59.462Z,48.95
2019-03-28T03:15:30.595Z,48.95
2019-03-28T03:18:01.686Z,49.02
2019-03-28T03:20:32.951Z,49.10
2019-03-28T03:23:04.178Z,48.88
2019-03-28T03:25:35.089Z,49.02
2019-03-28T03:28:06.365Z,48.88
2019-03-28T03:30:37.402Z,48.98
2019-03-28T03:33:09.215Z,48.86
2019-03-28T03:35:40.684Z,48.91
2019-03-28T03:38:11.770Z,49.03
2019-03-28T03:40:42.784Z,48.86
2019-03-28T03:43:14.044Z,48.82
2019-03-28T03:45:45.345Z,49.12
2019-03-28T03:48:16.443Z,48.94
2019-03-28T03:50:48.695Z,49.23
2019-03-28T03:53:20.070Z,48.93
2019-03-28T03:55:51.067Z,48.87
2019-03-28T03:58:22.174Z,48.81
2019-03-28T04:00:53.266Z,48.81
2019-03-28T04:03:24.538Z,48.68
2019-03-28T04:05:55.666Z,48.66
2019-03-28T04:08:27.133Z,48.60
2019-03-28T04:10:59.525Z,48.30
2019-03-28T04:13:30.638Z,48.39
2019-03-28T04:16:01.870Z,48.59
2019-03-28T04:18:33.273Z,48.21
2019-03-28T04:21:04.318Z,46.32
2019-03-28T04:23:35.512Z,45.27
2019-03-28T04:26:06.830Z,44.32
2019-03-28T04:28:39.768Z,43.37
2019-03-28T04:31:10.825Z,43.18
2019-03-28T04:33:41.859Z,43.07
2019-03-28T04:36:12.907Z,43.02
2019-03-28T04:38:43.914Z,43.33
2019-03-28T04:41:15.056Z,43.55
2019-03-28T04:43:46.266Z,43.46
2019-03-28T04:46:17.557Z,43.46
2019-03-28T04:48:50.784Z,43.38
2019-03-28T04:51:22.579Z,43.40
2019-03-28T04:53:56.203Z,43.40
2019-03-28T04:56:26.352Z,43.14
2019-03-28T04:58:57.729Z,42.81
2019-03-28T05:01:28.933Z,42.78
2019-03-28T05:04:00.197Z,42.65
2019-03-28T05:06:31.550Z,42.57
2019-03-28T05:09:02.885Z,42.19
2019-03-28T05:11:34.084Z,42.47
2019-03-28T05:14:05.170Z,42.42
2019-03-28T05:16:36.215Z,42.21
2019-03-28T05:19:07.377Z,41.62
2019-03-28T05:21:38.400Z,40.37
2019-03-28T05:24:09.630Z,39.99
2019-03-28T05:26:41.345Z,35.23
2019-03-28T05:29:12.538Z,35.23
2019-03-28T05:31:43.802Z,33.29
2019-03-28T05:34:14.969Z,30.88
2019-03-28T05:36:46.335Z,29.71
2019-03-28T05:39:17.421Z,28.04
2019-03-28T05:41:48.895Z,27.29
2019-03-28T05:44:20.058Z,26.33
2019-03-28T05:46:51.537Z,25.51
2019-03-28T05:49:22.754Z,24.30
2019-03-28T05:51:53.965Z,24.54
2019-03-28T05:54:25.158Z,23.38
2019-03-28T05:56:56.327Z,24.24
2019-03-28T05:59:27.322Z,23.87
2019-03-28T06:01:58.391Z,23.86
2019-03-28T06:04:29.560Z,23.39
2019-03-28T06:07:00.705Z,22.83
2019-03-28T06:09:32.095Z,22.01
2019-03-28T06:12:03.216Z,22.04
2019-03-28T06:14:34.561Z,20.60
2019-03-28T06:17:05.638Z,20.29
2019-03-28T06:19:36.807Z,19.49
2019-03-28T06:22:07.952Z,19.66
2019-03-28T06:24:39.505Z,20.89
2019-03-28T06:27:12.061Z,20.54
2019-03-28T06:29:43.146Z,20.61
2019-03-28T06:32:14.730Z,20.65
2019-03-28T06:34:45.832Z,20.07
2019-03-28T06:37:17.000Z,19.61
2019-03-28T06:39:48.116Z,19.85
2019-03-28T06:42:19.459Z,20.24
2019-03-28T06:44:50.659Z,20.66
2019-03-28T06:47:22.616Z,20.25
2019-03-28T06:49:55.284Z,21.26
2019-03-28T06:52:28.000Z,21.87
2019-03-28T06:54:59.627Z,21.46
2019-03-28T06:57:30.684Z,21.49
2019-03-28T07:00:04.861Z,21.32
2019-03-28T07:02:36.276Z,21.49
2019-03-28T07:05:07.594Z,21.62
2019-03-28T07:07:38.882Z,22.25
2019-03-28T07:10:11.017Z,23.17
2019-03-28T07:12:42.508Z,24.97
2019-03-28T07:15:14.184Z,25.17
2019-03-28T07:17:45.520Z,26.53
2019-03-28T07:20:16.780Z,27.26
2019-03-28T07:22:48.045Z,28.16
2019-03-28T07:25:19.239Z,28.77
2019-03-28T07:27:50.316Z,30.07
2019-03-28T07:30:22.166Z,28.84
2019-03-28T07:32:53.776Z,29.40
2019-03-28T07:35:25.109Z,29.40
2019-03-28T07:37:56.233Z,31.05
2019-03-28T07:40:27.466Z,31.05
2019-03-28T07:42:58.380Z,31.40
2019-03-28T07:45:34.443Z,31.22
2019-03-28T07:48:05.248Z,32.25
2019-03-28T07:50:36.132Z,32.25
2019-03-28T07:53:07.252Z,32.42
2019-03-28T07:55:37.957Z,31.86
2019-03-28T07:58:09.573Z,31.90
2019-03-28T08:00:40.445Z,32.53
2019-03-28T08:03:11.393Z,32.64
2019-03-28T08:05:42.446Z,31.84
2019-03-28T08:08:14.551Z,31.84
2019-03-28T08:10:46.054Z,33.16
2019-03-28T08:13:16.886Z,33.60
2019-03-28T08:15:48.536Z,34.63
2019-03-28T08:18:19.754Z,32.70
2019-03-28T08:20:50.981Z,33.28
2019-03-28T08:23:21.952Z,34.22
2019-03-28T08:25:52.898Z,35.20
2019-03-28T08:28:24.035Z,35.20
2019-03-28T08:30:55.008Z,35.37
2019-03-28T08:33:26.549Z,35.72
2019-03-28T08:35:59.206Z,36.69
2019-03-28T08:38:31.171Z,37.45
2019-03-28T08:41:06.778Z,37.56
2019-03-28T08:43:36.207Z,37.73
2019-03-28T08:46:08.985Z,36.78
2019-03-28T08:48:40.079Z,35.21
2019-03-28T08:51:11.731Z,33.77
2019-03-28T08:53:42.782Z,35.47
2019-03-28T08:56:13.517Z,36.76
2019-03-28T08:58:48.260Z,36.01
2019-03-28T09:01:19.847Z,36.02
2019-03-28T09:03:51.677Z,36.40
2019-03-28T09:06:22.858Z,36.99
2019-03-28T09:08:53.979Z,36.60
2019-03-28T09:11:25.023Z,36.28
2019-03-28T09:13:55.989Z,37.91
2019-03-28T09:16:26.864Z,36.91
2019-03-28T09:18:57.911Z,36.63
2019-03-28T09:21:32.935Z,36.25
2019-03-28T09:24:04.133Z,35.13
2019-03-28T09:26:35.501Z,34.84
2019-03-28T09:29:06.986Z,34.28
2019-03-28T09:31:38.403Z,35.35
2019-03-28T09:34:09.714Z,36.33
2019-03-28T09:36:41.762Z,35.96
2019-03-28T09:39:12.850Z,36.06
2019-03-28T09:41:43.808Z,37.79
2019-03-28T09:44:14.841Z,39.13
2019-03-28T09:46:46.009Z,40.49
2019-03-28T09:49:17.183Z,39.50
2019-03-28T09:51:48.556Z,39.52
2019-03-28T09:54:19.600Z,39.93
2019-03-28T09:56:50.693Z,40.04
2019-03-28T09:59:21.831Z,39.83
2019-03-28T10:01:53.289Z,39.40
2019-03-28T10:04:24.440Z,39.47
2019-03-28T10:06:55.370Z,40.24
2019-03-28T10:09:27.267Z,39.65
2019-03-28T10:11:58.828Z,38.56
2019-03-28T10:14:29.738Z,39.12
2019-03-28T10:17:01.436Z,39.40
2019-03-28T10:19:32.605Z,38.06
2019-03-28T10:22:03.379Z,38.40
2019-03-28T10:24:34.339Z,39.86
2019-03-28T10:27:05.242Z,39.72
2019-03-28T10:29:36.537Z,37.33
2019-03-28T10:32:07.375Z,36.19
2019-03-28T10:34:39.035Z,34.28
2019-03-28T10:37:10.180Z,35.46
2019-03-28T10:39:42.903Z,38.86
2019-03-28T10:42:13.807Z,38.86
2019-03-28T10:44:45.581Z,39.71
2019-03-28T10:47:16.907Z,38.97
2019-03-28T10:49:47.726Z,38.47
2019-03-28T10:52:18.733Z,38.16
2019-03-28T10:54:50.605Z,40.19
2019-03-28T10:57:29.764Z,40.14
2019-03-28T10:59:54.586Z,38.87
2019-03-28T11:02:28.778Z,38.87
2019-03-28T11:04:59.356Z,40.34
2019-03-28T11:07:30.415Z,39.56
2019-03-28T11:10:01.400Z,39.56
2019-03-28T11:12:32.985Z,40.34
2019-03-28T11:15:04.369Z,41.28
2019-03-28T11:17:35.669Z,40.79
2019-03-28T11:20:06.764Z,38.55
2019-03-28T11:22:37.663Z,39.40
2019-03-28T11:25:08.781Z,39.51
2019-03-28T11:27:39.853Z,40.35
2019-03-28T11:30:12.952Z,39.92
2019-03-28T11:32:44.948Z,41.03
2019-03-28T11:35:15.873Z,39.76
2019-03-28T11:37:46.894Z,40.31
2019-03-28T11:40:19.187Z,38.53
2019-03-28T11:42:52.047Z,39.31
2019-03-28T11:45:26.781Z,39.68
2019-03-28T11:47:56.383Z,40.46
2019-03-28T11:50:27.678Z,39.26
2019-03-28T11:52:58.634Z,38.40
2019-03-28T11:55:29.426Z,38.99
2019-03-28T11:58:00.477Z,38.28
2019-03-28T12:00:32.199Z,39.00
2019-03-28T12:03:03.497Z,40.16
2019-03-28T12:05:34.953Z,40.17
2019-03-28T12:08:05.951Z,40.17
2019-03-28T12:10:36.899Z,40.38
2019-03-28T12:13:09.006Z,40.23
2019-03-28T12:15:42.732Z,40.18
2019-03-28T12:18:13.908Z,39.11
2019-03-28T12:20:45.711Z,38.13
2019-03-28T12:23:16.714Z,38.63
2019-03-28T12:25:47.749Z,38.63
2019-03-28T12:28:18.669Z,39.32
2019-03-28T12:30:49.636Z,39.38
2019-03-28T12:33:20.613Z,38.63
2019-03-28T12:35:52.407Z,37.89
2019-03-28T12:38:24.883Z,38.06
2019-03-28T12:40:56.494Z,38.22
2019-03-28T12:43:27.801Z,38.43
2019-03-28T12:45:58.726Z,38.43
2019-03-28T12:48:29.569Z,38.93
2019-03-28T12:51:01.049Z,37.54
2019-03-28T12:53:32.362Z,37.12
2019-03-28T12:56:03.391Z,36.80
2019-03-28T12:58:34.427Z,36.65
2019-03-28T13:01:05.527Z,37.02
2019-03-28T13:03:45.460Z,37.02
2019-03-28T13:06:09.410Z,38.56
2019-03-28T13:08:40.402Z,38.56
2019-03-28T13:11:12.040Z,38.50
2019-03-28T13:13:43.018Z,37.83
2019-03-28T13:16:13.929Z,37.51
2019-03-28T13:18:44.959Z,36.60
2019-03-28T13:21:15.905Z,36.69
2019-03-28T13:23:46.929Z,37.87
2019-03-28T13:26:18.041Z,38.12
2019-03-28T13:28:49.187Z,38.12
2019-03-28T13:31:20.224Z,37.82
2019-03-28T13:33:51.226Z,38.52
2019-03-28T13:36:22.785Z,38.39
2019-03-28T13:38:53.785Z,38.39
2019-03-28T13:41:24.771Z,39.44
2019-03-28T13:43:56.743Z,39.66
2019-03-28T13:46:30.397Z,39.17
2019-03-28T13:49:01.578Z,40.16
2019-03-28T13:51:32.485Z,40.16
2019-03-28T13:54:03.364Z,39.08
2019-03-28T13:56:34.232Z,40.09
2019-03-28T13:59:05.848Z,40.78
2019-03-28T14:01:38.214Z,40.78
2019-03-28T14:04:09.222Z,41.00
2019-03-28T14:06:40.447Z,40.83
2019-03-28T14:09:11.353Z,39.51
2019-03-28T14:11:42.643Z,39.51
2019-03-28T14:14:14.886Z,40.66
2019-03-28T14:16:46.112Z,40.83
2019-03-28T14:19:17.299Z,40.83
2019-03-28T14:21:48.341Z,41.25
2019-03-28T14:24:19.616Z,41.66
2019-03-28T14:26:50.597Z,41.76
2019-03-28T14:29:21.580Z,41.76
2019-03-28T14:31:53.300Z,41.90
2019-03-28T14:34:24.739Z,41.81
2019-03-28T14:36:55.685Z,41.65
2019-03-28T14:39:26.858Z,41.65
2019-03-28T14:41:58.103Z,42.04
2019-03-28T14:44:29.417Z,42.04
2019-03-28T14:47:00.573Z,42.38
2019-03-28T14:49:31.725Z,42.35
2019-03-28T14:52:04.053Z,42.53
2019-03-28T14:54:35.218Z,42.77
2019-03-28T14:57:06.356Z,42.34
2019-03-28T14:59:38.156Z,42.57
2019-03-28T15:02:09.980Z,43.83
2019-03-28T15:04:40.952Z,44.98
2019-03-28T15:07:12.059Z,44.30
2019-03-28T15:09:43.094Z,44.20
2019-03-28T15:12:14.178Z,44.47
2019-03-28T15:14:45.860Z,44.57
2019-03-28T15:17:16.940Z,44.88
2019-03-28T15:19:47.908Z,44.98
2019-03-28T15:22:19.271Z,45.14
2019-03-28T15:24:50.417Z,44.81
2019-03-28T15:27:21.389Z,45.27
2019-03-28T15:29:52.143Z,45.77
2019-03-28T15:32:22.930Z,46.03
2019-03-28T15:34:53.974Z,46.31
2019-03-28T15:37:24.924Z,45.71
2019-03-28T15:39:57.754Z,45.65
2019-03-28T15:42:28.760Z,45.86
2019-03-28T15:44:59.881Z,46.13
2019-03-28T15:47:30.840Z,46.52
2019-03-28T15:50:01.779Z,46.52
2019-03-28T15:52:32.768Z,46.46
2019-03-28T15:55:03.977Z,46.58
2019-03-28T15:57:34.743Z,45.92
2019-03-28T16:00:06.713Z,45.86
2019-03-28T16:02:37.599Z,46.22
2019-03-28T16:05:08.680Z,46.74
2019-03-28T16:07:39.937Z,47.16
2019-03-28T16:10:14.495Z,46.74
2019-03-28T16:12:44.642Z,46.49
2019-03-28T16:15:17.465Z,46.60
2019-03-28T16:17:48.562Z,46.79
2019-03-28T16:20:19.623Z,46.79
2019-03-28T16:22:50.610Z,46.84
2019-03-28T16:25:23.345Z,47.15
2019-03-28T16:27:54.262Z,47.50
2019-03-28T16:30:36.357Z,47.84
2019-03-28T16:33:07.686Z,48.22
2019-03-28T16:35:38.478Z,48.29
2019-03-28T16:38:09.373Z,48.42
2019-03-28T16:40:40.447Z,48.55
2019-03-28T16:43:11.335Z,48.81
2019-03-28T16:45:43.943Z,48.80
2019-03-28T16:48:15.198Z,48.98
2019-03-28T16:50:46.300Z,49.23
2019-03-28T16:53:16.913Z,49.27
2019-03-28T16:55:48.176Z,49.42
2019-03-28T16:58:19.929Z,49.54
2019-03-28T17:00:50.979Z,49.63
2019-03-28T17:03:21.805Z,49.66
2019-03-28T17:05:52.754Z,49.90
2019-03-28T17:08:23.815Z,49.70
2019-03-28T17:10:55.359Z,49.87
2019-03-28T17:13:26.451Z,50.24
2019-03-28T17:15:58.342Z,50.15
2019-03-28T17:18:29.415Z,50.27
2019-03-28T17:21:00.135Z,50.44
2019-03-28T17:23:31.921Z,50.45
2019-03-28T17:26:02.860Z,50.50
2019-03-28T17:28:33.655Z,50.71
2019-03-28T17:31:04.734Z,50.84
2019-03-28T17:33:35.552Z,50.89
2019-03-28T17:36:07.133Z,50.95
2019-03-28T17:38:38.217Z,50.85
2019-03-28T17:41:09.290Z,51.14
2019-03-28T17:43:41.217Z,51.35
2019-03-28T17:46:15.330Z,51.51
2019-03-28T17:48:46.385Z,51.73
2019-03-28T17:51:17.279Z,51.74
2019-03-28T17:53:48.244Z,51.75
2019-03-28T17:56:21.154Z,51.90
2019-03-28T17:58:53.607Z,51.89
2019-03-28T18:01:24.691Z,52.12
2019-03-28T18:03:55.681Z,52.24
2019-03-28T18:06:27.475Z,52.35
2019-03-28T18:08:58.229Z,52.29
2019-03-28T18:11:29.464Z,52.50
2019-03-28T18:14:00.498Z,52.54
2019-03-28T18:16:31.556Z,52.48
2019-03-28T18:19:02.733Z,52.76
2019-03-28T18:21:34.054Z,53.08
2019-03-28T18:24:05.612Z,52.87
2019-03-28T18:26:36.864Z,52.71
2019-03-28T18:29:08.129Z,53.25
2019-03-28T18:31:49.658Z,53.30
2019-03-28T18:34:12.466Z,53.22
2019-03-28T18:36:43.463Z,53.18
2019-03-28T18:39:14.638Z,53.19
2019-03-28T18:41:45.901Z,53.24
2019-03-28T18:44:16.808Z,53.20
2019-03-28T18:46:48.205Z,54.19
2019-03-28T18:49:19.554Z,54.25
2019-03-28T18:51:50.449Z,54.34
2019-03-28T18:54:21.315Z,54.00
2019-03-28T18:56:52.247Z,53.82
2019-03-28T18:59:23.813Z,54.62
2019-03-28T19:01:57.219Z,54.58
2019-03-28T19:04:29.796Z,55.08
2019-03-28T19:07:05.356Z,54.90
2019-03-28T19:09:36.569Z,55.14
2019-03-28T19:12:16.257Z,55.81
2019-03-28T19:14:47.315Z,55.30
2019-03-28T19:17:20.016Z,55.66
2019-03-28T19:19:51.402Z,55.54
2019-03-28T19:22:23.901Z,55.67
2019-03-28T19:24:54.799Z,55.86
2019-03-28T19:27:25.850Z,56.08
2019-03-28T19:29:56.770Z,56.05
2019-03-28T19:32:29.812Z,55.83
2019-03-28T19:35:03.009Z,55.94
2019-03-28T19:37:33.521Z,55.90
2019-03-28T19:40:06.919Z,56.51
2019-03-28T19:42:38.223Z,56.48
2019-03-28T19:45:09.781Z,56.43
2019-03-28T19:47:40.728Z,56.21
2019-03-28T19:50:15.639Z,56.37
2019-03-28T19:52:46.761Z,56.60
2019-03-28T19:55:21.884Z,56.43
2019-03-28T19:57:52.907Z,56.09
2019-03-28T20:00:24.572Z,56.25
2019-03-28T20:02:55.917Z,56.65
2019-03-28T20:05:27.004Z,56.69
2019-03-28T20:07:58.203Z,56.52
2019-03-28T20:10:29.785Z,56.56
2019-03-28T20:13:00.517Z,56.59
2019-03-28T20:15:31.447Z,56.59
2019-03-28T20:18:03.151Z,56.75
2019-03-28T20:20:34.087Z,56.54
2019-03-28T20:23:06.074Z,55.99
2019-03-28T20:25:37.168Z,56.00
2019-03-28T20:28:09.421Z,56.15
2019-03-28T20:30:40.364Z,55.97
2019-03-28T20:33:11.838Z,55.91
2019-03-28T20:35:43.943Z,55.75
2019-03-28T20:38:15.075Z,55.73
2019-03-28T20:40:46.068Z,55.97
2019-03-28T20:43:16.998Z,55.94
2019-03-28T20:45:48.787Z,56.25
2019-03-28T20:48:20.179Z,56.46
2019-03-28T20:50:51.136Z,56.32
2019-03-28T20:53:22.367Z,56.66
2019-03-28T20:55:53.659Z,56.65
2019-03-28T20:58:24.398Z,56.60
2019-03-28T21:00:55.525Z,56.63
2019-03-28T21:03:27.021Z,56.76
2019-03-28T21:05:58.281Z,56.60
2019-03-28T21:08:29.349Z,56.27
2019-03-28T21:11:00.320Z,56.22
2019-03-28T21:13:31.462Z,56.29
2019-03-28T21:16:02.365Z,56.02
2019-03-28T21:18:33.280Z,55.98
2019-03-28T21:21:04.544Z,56.11
2019-03-28T21:23:36.009Z,55.80
2019-03-28T21:26:07.099Z,55.58
2019-03-28T21:28:47.192Z,55.73
2019-03-28T21:31:11.067Z,55.78
2019-03-28T21:33:42.404Z,55.83
2019-03-28T21:36:13.612Z,56.22
2019-03-28T21:38:44.547Z,56.35
2019-03-28T21:41:15.697Z,56.34
2019-03-28T21:43:46.646Z,56.54
2019-03-28T21:46:17.632Z,56.86
2019-03-28T21:48:48.623Z,57.10
2019-03-28T21:51:19.479Z,57.20
2019-03-28T21:53:51.530Z,57.52
2019-03-28T21:56:22.341Z,56.88
2019-03-28T21:58:53.068Z,57.06
2019-03-28T22:01:23.976Z,57.18
2019-03-28T22:03:55.209Z,57.08
2019-03-28T22:06:42.090Z,57.42
2019-03-28T22:09:01.339Z,57.27
2019-03-28T22:11:32.262Z,57.52
2019-03-28T22:14:03.424Z,57.50
2019-03-28T22:16:34.056Z,57.60
2019-03-28T22:19:05.479Z,57.84
2019-03-28T22:21:36.388Z,58.03
2019-03-28T22:24:07.480Z,58.08
2019-03-28T22:26:38.797Z,58.23
2019-03-28T22:29:10.362Z,58.17
2019-03-28T22:31:41.353Z,58.15
2019-03-28T22:34:12.572Z,58.16
2019-03-28T22:36:56.597Z,58.33
2019-03-28T22:39:16.868Z,58.52
2019-03-28T22:41:48.267Z,58.59
2019-03-28T22:44:19.876Z,58.42
2019-03-28T22:46:51.321Z,58.48
2019-03-28T22:49:22.368Z,58.84
2019-03-28T22:51:53.805Z,58.89
2019-03-28T22:54:24.864Z,59.16
2019-03-28T22:56:56.166Z,59.15
2019-03-28T22:59:27.642Z,59.29
2019-03-28T23:01:59.373Z,59.16
2019-03-28T23:04:30.728Z,59.20
2019-03-28T23:07:10.739Z,59.28
2019-03-28T23:09:35.094Z,59.44
2019-03-28T23:12:06.511Z,59.50
2019-03-28T23:14:37.986Z,59.52
2019-03-28T23:17:09.426Z,60.18
2019-03-28T23:19:40.985Z,60.89
2019-03-28T23:22:12.400Z,60.90
2019-03-28T23:24:44.384Z,60.68
2019-03-28T23:27:15.938Z,60.71
2019-03-28T23:29:50.164Z,60.48
2019-03-28T23:32:21.980Z,60.45
2019-03-28T23:34:53.479Z,60.56
2019-03-28T23:37:26.130Z,60.63
2019-03-28T23:39:58.043Z,60.64
2019-03-28T23:42:31.563Z,60.29
2019-03-28T23:45:02.625Z,60.10
2019-03-28T23:47:34.146Z,59.59
2019-03-28T23:50:06.970Z,59.70
2019-03-28T23:52:38.558Z,59.48
2019-03-28T23:55:09.893Z,59.52
2019-03-28T23:57:41.124Z,59.52
